Last 24 Hours

Squaw-Siberia 8700'

Hourly Data | America/Los_Angeles
as of 12/15/19 10:46 AM PST
Date & Time Temp (°F) RH (%) Dew Pt (°F) Wet Bulb (°F) Wind Dir (°) Wind Spd (mph) Wind Gust (mph) WindChill (°F) Daily Min Temp (°F) Daily Max Temp (°F)
12/15/19 - 1000 14.1 95 12.9 13.7 WNW | 283 13.1 20.2 -0.5 11.4 16.3
12/15/19 - 0900 12.7 95 11.5 12.3 WNW | 283 12.4 21.0 -2.8 11.4 16.3
12/15/19 - 0800 11.5 96 10.5 11.2 WNW | 283 13.0 21.2 -3.2 11.4 16.3
12/15/19 - 0700 11.8 96 10.8 11.5 WNW | 283 9.3 16.5 -0.2 11.7 16.3
12/15/19 - 0600 12.3 96 11.4 12.0 WNW | 283 8.2 16.5 1.0 12.0 16.3
12/15/19 - 0500 12.5 96 11.6 12.2 WNW | 283 14.2 23.1 -2.5 12.5 16.3
12/15/19 - 0400 12.9 97 12.1 12.7 WNW | 283 18.0 27.9 -3.5 12.9 16.3
12/15/19 - 0300 13.9 97 13.2 13.7 WNW | 283 24.0 39.4 -4.4 13.9 16.3
12/15/19 - 0200 14.9 97 14.2 14.7 WNW | 283 27.4 40.4 -4.3 14.8 16.3
12/15/19 - 0100 15.9 97 15.3 15.7 WNW | 283 28.6 43.0 -3.6 15.8 16.3
12/15/19 - 0000 16.1 98 15.5 15.9 WNW | 283 37.0 60.9 -5.3 16.1 25.2
12/14/19 - 2300 16.7 98 16.1 16.5 WNW | 283 38.9 57.1 -5.2 16.5 25.2
12/14/19 - 2200 16.8 98 16.3 16.6 WNW | 283 36.0 64.8 -4.2 16.8 25.2
12/14/19 - 2100 17.2 98 16.8 17.1 WNW | 283 29.9 45.8 -2.2 16.9 25.2
12/14/19 - 2000 17.1 98 16.6 16.9 WNW | 283 30.5 45.9 -2.8 16.9 25.2
12/14/19 - 1900 17.2 98 16.8 17.1 WNW | 283 30.3 49.1 -2.2 16.9 25.2
12/14/19 - 1800 16.9 98 16.4 16.7 WNW | 283 30.2 39.3 -2.4 16.9 25.2
12/14/19 - 1700 17.6 98 17.1 17.4 WNW | 283 32.1 47.7 -1.7 17.6 25.2
12/14/19 - 1600 19.0 99 18.6 18.9 WNW | 283 28.7 41.6 1.0 18.5 25.2
12/14/19 - 1500 20.2 99 19.9 20.1 WNW | 283 28.9 40.5 2.5 18.5 25.2
12/14/19 - 1400 21.1 99 20.9 21.0 WNW | 283 26.9 35.8 4.1 18.5 25.2
12/14/19 - 1300 20.8 100 20.7 20.8 WNW | 283 27.1 34.1 4.9 18.5 25.2
12/14/19 - 1200 22.2 99 22.1 22.2 WNW | 283 27.8 36.0 4.6 18.5 25.2
12/14/19 - 1100 22.0 99 21.8 22.0 WNW | 283 24.0 30.6 4.2 18.5 25.2
12/14/19 - 1000 20.0 99 19.7 19.9 WNW | 283 21.8 28.8 3.9 18.5 25.2
Max 22.2 100 22.1 22.2 - 38.9 64.8 4.9 18.5 25.2
Avg 16.5 98 16.0 16.4 - 24.7 37.1 -1.0 - -
Min 11.5 95 10.5 11.2 - 8.2 16.5 -5.3 11.4 16.3